createdAt,value
2023-05-19T00:02:05.043Z,10.57
2023-05-19T00:05:07.629Z,10.51
2023-05-19T00:08:10.954Z,10.45
2023-05-19T00:11:12.875Z,10.45
2023-05-19T00:14:14.641Z,10.43
2023-05-19T00:17:17.370Z,10.37
2023-05-19T00:20:19.022Z,10.33
2023-05-19T00:23:20.304Z,10.30
2023-05-19T00:26:22.068Z,10.22
2023-05-19T00:29:23.545Z,10.11
2023-05-19T00:32:25.554Z,10.08
2023-05-19T00:35:27.116Z,10.07
2023-05-19T00:38:29.151Z,9.94
2023-05-19T00:41:30.653Z,9.87
2023-05-19T00:44:32.175Z,9.76
2023-05-19T00:47:34.373Z,9.55
2023-05-19T00:50:35.865Z,9.48
2023-05-19T00:53:37.221Z,9.51
2023-05-19T00:56:39.023Z,9.44
2023-05-19T00:59:40.561Z,9.34
2023-05-19T01:02:43.135Z,9.28
2023-05-19T01:05:44.741Z,9.15
2023-05-19T01:08:46.211Z,9.19
2023-05-19T01:11:47.743Z,9.22
2023-05-19T01:14:49.359Z,9.23
2023-05-19T01:17:59.940Z,9.10
2023-05-19T01:21:22.357Z,9.15
2023-05-19T01:24:46.771Z,9.07
2023-05-19T01:28:19.646Z,9.03
2023-05-19T01:31:23.447Z,9.01
2023-05-19T01:34:26.843Z,8.96
2023-05-19T01:37:29.311Z,9.00
2023-05-19T01:40:32.433Z,8.94
2023-05-19T01:43:35.380Z,8.71
2023-05-19T01:46:38.497Z,8.49
2023-05-19T01:49:39.893Z,8.47
2023-05-19T01:52:41.393Z,8.32
2023-05-19T01:55:48.758Z,8.32
2023-05-19T01:58:58.885Z,8.22
2023-05-19T02:02:05.456Z,8.18
2023-05-19T02:05:13.196Z,8.26
2023-05-19T02:08:26.784Z,8.21
2023-05-19T02:11:36.314Z,8.15
2023-05-19T02:14:45.171Z,8.10
2023-05-19T02:17:51.348Z,8.14
2023-05-19T02:20:52.799Z,8.07
2023-05-19T02:23:54.111Z,7.98
2023-05-19T02:26:55.572Z,7.92
2023-05-19T02:29:57.279Z,7.69
2023-05-19T02:32:59.747Z,7.69
2023-05-19T02:36:01.170Z,7.74
2023-05-19T02:39:02.669Z,7.84
2023-05-19T02:42:04.799Z,7.89
2023-05-19T02:45:07.045Z,7.91
2023-05-19T02:48:09.073Z,7.94
2023-05-19T02:51:10.616Z,7.91
2023-05-19T02:54:11.937Z,7.91
2023-05-19T02:57:13.404Z,8.03
2023-05-19T03:00:15.756Z,8.12
2023-05-19T03:03:18.052Z,8.20
2023-05-19T03:06:19.474Z,8.22
2023-05-19T03:09:20.935Z,8.23
2023-05-19T03:12:22.257Z,8.18
2023-05-19T03:15:23.754Z,8.20
2023-05-19T03:18:26.250Z,8.25
2023-05-19T03:21:27.950Z,8.21
2023-05-19T03:24:29.297Z,8.22
2023-05-19T03:27:30.798Z,8.14
2023-05-19T03:30:32.772Z,8.12
2023-05-19T03:33:35.026Z,8.17
2023-05-19T03:36:38.955Z,8.11
2023-05-19T03:39:40.264Z,7.93
2023-05-19T03:42:41.586Z,7.96
2023-05-19T03:45:42.982Z,8.03
2023-05-19T03:48:45.013Z,8.11
2023-05-19T03:51:46.475Z,8.11
2023-05-19T03:54:47.830Z,8.17
2023-05-19T03:57:49.370Z,8.24
2023-05-19T04:00:50.675Z,8.30
2023-05-19T04:03:52.856Z,8.28
2023-05-19T04:06:54.302Z,8.36
2023-05-19T04:09:56.148Z,8.42
2023-05-19T04:12:57.602Z,8.70
2023-05-19T04:15:59.012Z,9.00
2023-05-19T04:19:01.604Z,9.28
2023-05-19T04:22:03.267Z,9.29
2023-05-19T04:25:05.661Z,9.40
2023-05-19T04:28:07.058Z,9.53
2023-05-19T04:31:12.016Z,9.64
2023-05-19T04:34:14.069Z,9.84
2023-05-19T04:37:15.876Z,9.98
2023-05-19T04:40:17.648Z,10.15
2023-05-19T04:43:19.089Z,10.38
2023-05-19T04:46:23.704Z,10.67
2023-05-19T04:49:25.898Z,11.09
2023-05-19T04:52:27.497Z,11.34
2023-05-19T04:55:29.028Z,11.62
2023-05-19T04:58:30.419Z,12.13
2023-05-19T05:01:33.104Z,12.51
2023-05-19T05:04:35.431Z,13.02
2023-05-19T05:07:36.870Z,13.49
2023-05-19T05:10:38.443Z,13.61
2023-05-19T05:13:40.347Z,13.83
2023-05-19T05:16:42.814Z,14.18
2023-05-19T05:19:45.718Z,14.16
2023-05-19T05:22:47.640Z,14.23
2023-05-19T05:25:49.641Z,14.58
2023-05-19T05:28:50.994Z,14.74
2023-05-19T05:31:52.464Z,14.95
2023-05-19T05:34:54.729Z,15.30
2023-05-19T05:37:56.041Z,15.22
2023-05-19T05:40:57.483Z,15.44
2023-05-19T05:43:58.799Z,15.57
2023-05-19T05:47:00.705Z,15.57
2023-05-19T05:50:03.643Z,15.22
2023-05-19T05:53:06.685Z,14.93
2023-05-19T05:56:09.635Z,14.69
2023-05-19T05:59:10.994Z,14.42
2023-05-19T06:02:12.539Z,14.23
2023-05-19T06:05:14.731Z,14.38
2023-05-19T06:08:17.093Z,14.30
2023-05-19T06:11:19.047Z,14.30
2023-05-19T06:14:20.439Z,14.76
2023-05-19T06:17:21.912Z,15.00
2023-05-19T06:20:24.149Z,15.31
2023-05-19T06:23:26.456Z,15.87
2023-05-19T06:26:27.926Z,16.61
2023-05-19T06:29:29.236Z,17.03
2023-05-19T06:32:30.760Z,17.82
2023-05-19T06:35:32.780Z,18.09
2023-05-19T06:38:34.269Z,18.52
2023-05-19T06:41:35.575Z,18.98
2023-05-19T06:44:36.898Z,18.74
2023-05-19T06:47:40.440Z,19.30
2023-05-19T06:50:42.428Z,19.18
2023-05-19T06:53:43.883Z,19.43
2023-05-19T06:56:45.242Z,19.69
2023-05-19T06:59:46.595Z,19.81
2023-05-19T07:02:48.173Z,19.89
2023-05-19T07:05:50.659Z,20.48
2023-05-19T07:08:52.134Z,20.39
2023-05-19T07:11:55.469Z,20.50
2023-05-19T07:14:56.950Z,20.85
2023-05-19T07:17:58.414Z,21.52
2023-05-19T07:21:00.468Z,21.65
2023-05-19T07:24:01.850Z,21.75
2023-05-19T07:27:03.618Z,22.12
2023-05-19T07:30:06.098Z,22.27
2023-05-19T07:33:07.596Z,21.98
2023-05-19T07:36:09.752Z,21.94
2023-05-19T07:39:11.424Z,22.18
2023-05-19T07:42:12.826Z,22.54
2023-05-19T07:45:14.359Z,22.33
2023-05-19T07:48:17.901Z,22.27
2023-05-19T07:51:20.048Z,21.60
2023-05-19T07:54:21.436Z,22.72
2023-05-19T07:57:22.766Z,23.38
2023-05-19T08:00:24.459Z,22.86
2023-05-19T08:03:26.928Z,23.24
2023-05-19T08:06:31.104Z,23.18
2023-05-19T08:09:32.716Z,23.27
2023-05-19T08:12:34.084Z,23.55
2023-05-19T08:15:36.117Z,23.76
2023-05-19T08:18:37.510Z,22.80
2023-05-19T08:21:41.494Z,22.75
2023-05-19T08:24:43.972Z,22.60
2023-05-19T08:27:45.308Z,22.37
2023-05-19T08:30:46.712Z,22.55
2023-05-19T08:33:48.208Z,22.25
2023-05-19T08:36:50.248Z,22.38
2023-05-19T08:39:51.742Z,22.56
2023-05-19T08:42:54.000Z,23.69
2023-05-19T08:45:55.483Z,24.10
2023-05-19T08:49:01.877Z,24.49
2023-05-19T08:52:10.907Z,23.46
2023-05-19T08:55:20.995Z,23.76
2023-05-19T08:58:22.831Z,24.39
2023-05-19T09:01:25.986Z,24.15
2023-05-19T09:04:29.821Z,22.54
2023-05-19T09:07:34.153Z,21.74
2023-05-19T09:10:35.568Z,22.22
2023-05-19T09:13:37.124Z,22.22
2023-05-19T09:16:39.027Z,22.83
2023-05-19T09:19:43.566Z,23.11
2023-05-19T09:22:46.762Z,22.50
2023-05-19T09:25:48.731Z,22.11
2023-05-19T09:28:50.383Z,21.83
2023-05-19T09:31:53.658Z,22.46
2023-05-19T09:34:55.083Z,22.41
2023-05-19T09:37:57.570Z,22.44
2023-05-19T09:41:00.144Z,21.94
2023-05-19T09:44:01.470Z,22.05
2023-05-19T09:47:03.552Z,21.28
2023-05-19T09:50:07.636Z,21.92
2023-05-19T09:53:13.488Z,23.34
2023-05-19T09:56:15.434Z,22.83
2023-05-19T09:59:17.150Z,22.79
2023-05-19T10:02:21.454Z,22.56
2023-05-19T10:05:24.121Z,23.23
2023-05-19T10:08:29.129Z,22.63
2023-05-19T10:11:31.139Z,23.49
2023-05-19T10:14:32.527Z,23.17
2023-05-19T10:17:35.440Z,24.27
2023-05-19T10:20:37.718Z,24.33
2023-05-19T10:23:40.341Z,24.74
2023-05-19T10:26:46.709Z,23.81
2023-05-19T10:29:51.640Z,24.50
2023-05-19T10:32:56.664Z,25.01
2023-05-19T10:36:13.109Z,25.02
2023-05-19T10:39:21.716Z,24.33
2023-05-19T10:42:31.814Z,23.15
2023-05-19T10:45:40.207Z,23.72
2023-05-19T10:48:45.265Z,24.21
2023-05-19T10:51:46.604Z,25.12
2023-05-19T10:54:49.037Z,24.82
2023-05-19T10:57:54.186Z,24.96
2023-05-19T11:01:00.171Z,24.89
2023-05-19T11:04:06.320Z,25.31
2023-05-19T11:07:09.059Z,25.27
2023-05-19T11:10:11.903Z,25.05
2023-05-19T11:13:19.459Z,24.20
2023-05-19T11:16:27.167Z,23.34
2023-05-19T11:19:30.077Z,23.06
2023-05-19T11:22:35.170Z,23.24
2023-05-19T11:25:45.084Z,23.33
2023-05-19T11:28:47.789Z,23.77
2023-05-19T11:31:49.619Z,24.15
2023-05-19T11:34:52.597Z,24.20
2023-05-19T11:37:54.411Z,23.80
2023-05-19T11:40:57.133Z,23.59
2023-05-19T11:43:58.478Z,24.26
2023-05-19T11:47:00.281Z,24.99
2023-05-19T11:50:01.681Z,25.27
2023-05-19T11:53:04.062Z,25.85
2023-05-19T11:56:06.898Z,25.68
2023-05-19T11:59:08.717Z,25.98
2023-05-19T12:02:19.032Z,25.69
2023-05-19T12:05:21.740Z,25.25
2023-05-19T12:08:23.343Z,24.86
2023-05-19T12:11:28.117Z,25.03
2023-05-19T12:14:30.626Z,24.66
2023-05-19T12:17:32.559Z,24.12
2023-05-19T12:20:34.792Z,23.39
2023-05-19T12:23:36.743Z,23.04
2023-05-19T12:26:40.640Z,23.01
2023-05-19T12:29:42.115Z,22.75
2023-05-19T12:32:43.521Z,22.55
2023-05-19T12:35:47.009Z,22.58
2023-05-19T12:38:53.832Z,22.63
2023-05-19T12:42:02.238Z,22.64
2023-05-19T12:45:04.598Z,22.37
2023-05-19T12:48:11.633Z,22.42
2023-05-19T12:51:16.190Z,22.31
2023-05-19T12:54:19.066Z,22.78
2023-05-19T12:57:22.507Z,23.30
2023-05-19T13:00:27.511Z,23.46
2023-05-19T13:03:29.118Z,23.37
2023-05-19T13:06:32.062Z,23.07
2023-05-19T13:09:35.725Z,22.60
2023-05-19T13:12:37.742Z,22.52
2023-05-19T13:15:41.694Z,22.21
2023-05-19T13:18:43.197Z,22.00
2023-05-19T13:21:46.654Z,21.77
2023-05-19T13:24:48.107Z,21.74
2023-05-19T13:27:50.475Z,21.57
2023-05-19T13:30:51.872Z,21.76
2023-05-19T13:33:53.408Z,21.89
2023-05-19T13:36:54.876Z,21.70
2023-05-19T13:39:57.808Z,21.40
2023-05-19T13:43:00.974Z,21.59
2023-05-19T13:46:02.747Z,21.58
2023-05-19T13:49:04.172Z,21.52
2023-05-19T13:52:06.424Z,21.74
2023-05-19T13:55:08.692Z,21.62
2023-05-19T13:58:11.683Z,21.82
2023-05-19T14:01:13.272Z,21.57
2023-05-19T14:04:17.264Z,21.54
2023-05-19T14:07:18.898Z,21.31
2023-05-19T14:10:20.572Z,21.34
2023-05-19T14:13:31.550Z,21.13
2023-05-19T14:16:38.181Z,21.29
2023-05-19T14:19:40.303Z,21.29
2023-05-19T14:22:41.795Z,21.41
2023-05-19T14:25:43.174Z,21.30
2023-05-19T14:28:45.747Z,21.46
2023-05-19T14:31:47.410Z,21.32
2023-05-19T14:34:52.004Z,21.25
2023-05-19T14:37:53.474Z,21.27
2023-05-19T14:40:54.962Z,21.34
2023-05-19T14:43:56.918Z,21.43
2023-05-19T14:46:59.142Z,21.43
2023-05-19T14:50:00.559Z,21.29
2023-05-19T14:53:01.947Z,21.26
2023-05-19T14:56:05.893Z,21.30
2023-05-19T14:59:08.493Z,21.07
2023-05-19T15:02:11.340Z,21.20
2023-05-19T15:05:12.632Z,21.15
2023-05-19T15:08:14.212Z,21.15
2023-05-19T15:11:15.870Z,21.36
2023-05-19T15:14:17.855Z,21.11
2023-05-19T15:17:19.489Z,21.11
2023-05-19T15:20:21.127Z,21.11
2023-05-19T15:23:22.496Z,20.58
2023-05-19T15:26:23.860Z,20.61
2023-05-19T15:29:26.519Z,20.52
2023-05-19T15:32:27.998Z,20.47
2023-05-19T15:35:29.311Z,20.46
2023-05-19T15:38:34.906Z,20.44
2023-05-19T15:41:36.229Z,20.46
2023-05-19T15:44:38.449Z,20.72
2023-05-19T15:47:39.966Z,20.56
2023-05-19T15:50:41.438Z,20.59
2023-05-19T15:53:42.833Z,20.42
2023-05-19T15:56:44.249Z,20.52
2023-05-19T15:59:46.290Z,20.62
2023-05-19T16:02:47.892Z,20.60
2023-05-19T16:05:49.295Z,20.47
2023-05-19T16:08:50.728Z,20.44
2023-05-19T16:11:52.046Z,20.33
2023-05-19T16:14:54.163Z,20.50
2023-05-19T16:17:56.094Z,20.29
2023-05-19T16:20:57.519Z,20.14
2023-05-19T16:23:58.886Z,20.14
2023-05-19T16:27:00.271Z,19.84
2023-05-19T16:30:02.646Z,20.05
2023-05-19T16:33:04.147Z,19.94
2023-05-19T16:36:05.996Z,19.87
2023-05-19T16:39:07.379Z,19.83
2023-05-19T16:42:08.702Z,19.50
2023-05-19T16:45:11.260Z,19.35
2023-05-19T16:48:12.700Z,19.24
2023-05-19T16:51:14.275Z,19.11
2023-05-19T16:54:15.605Z,18.90
2023-05-19T16:57:17.118Z,18.68
2023-05-19T17:00:19.589Z,19.05
2023-05-19T17:03:21.004Z,18.88
2023-05-19T17:06:22.570Z,18.76
2023-05-19T17:09:25.532Z,18.84
2023-05-19T17:12:26.948Z,18.64
2023-05-19T17:15:29.549Z,18.56
2023-05-19T17:21:50.773Z,18.29
2023-05-19T17:24:52.228Z,18.27
2023-05-19T17:27:54.959Z,18.22
2023-05-19T17:30:57.148Z,18.24
2023-05-19T17:33:58.501Z,18.12
2023-05-19T17:37:00.634Z,18.17
2023-05-19T17:40:02.142Z,18.10
2023-05-19T17:43:03.514Z,18.23
2023-05-19T17:46:05.928Z,18.17
2023-05-19T17:49:07.455Z,18.05
2023-05-19T17:52:10.068Z,18.04
2023-05-19T17:55:12.573Z,18.06
2023-05-19T17:58:14.560Z,18.08
2023-05-19T18:01:17.079Z,17.96
2023-05-19T18:04:19.003Z,18.03
2023-05-19T18:07:23.924Z,17.83
2023-05-19T18:10:26.923Z,17.81
2023-05-19T18:13:28.352Z,18.09
2023-05-19T18:16:30.467Z,17.64
2023-05-19T18:19:31.882Z,17.72
2023-05-19T18:22:33.294Z,17.63
2023-05-19T18:25:35.425Z,17.63
2023-05-19T18:28:36.860Z,17.55
2023-05-19T18:31:38.931Z,17.37
2023-05-19T18:34:40.494Z,17.49
2023-05-19T18:37:41.819Z,17.36
2023-05-19T18:40:43.437Z,17.36
2023-05-19T18:43:44.976Z,17.25
2023-05-19T18:46:47.088Z,17.17
2023-05-19T18:49:48.559Z,17.14
2023-05-19T18:52:50.109Z,17.07
2023-05-19T18:55:51.611Z,16.89
2023-05-19T18:58:54.408Z,16.95
2023-05-19T19:01:56.568Z,16.92
2023-05-19T19:04:58.177Z,16.71
2023-05-19T19:07:59.675Z,16.75
2023-05-19T19:11:01.246Z,16.68
2023-05-19T19:14:02.694Z,16.73
2023-05-19T19:17:05.143Z,16.58
2023-05-19T19:20:07.997Z,16.57
2023-05-19T19:23:09.501Z,16.60
2023-05-19T19:26:11.086Z,16.36
2023-05-19T19:29:12.575Z,16.38
2023-05-19T19:32:14.573Z,16.43
2023-05-19T19:35:16.104Z,16.35
2023-05-19T19:38:17.683Z,16.26
2023-05-19T19:41:19.370Z,16.21
2023-05-19T19:44:22.213Z,16.08
2023-05-19T19:47:24.227Z,16.02
2023-05-19T19:50:25.758Z,16.21
2023-05-19T19:53:27.147Z,16.17
2023-05-19T19:56:28.627Z,16.04
2023-05-19T19:59:30.636Z,15.94
2023-05-19T20:02:32.845Z,15.89
2023-05-19T20:05:36.584Z,15.78
2023-05-19T20:08:37.918Z,15.60
2023-05-19T20:11:39.396Z,15.67
2023-05-19T20:14:40.746Z,15.57
2023-05-19T20:17:42.936Z,15.58
2023-05-19T20:20:44.305Z,15.42
2023-05-19T20:23:45.979Z,15.38
2023-05-19T20:26:47.461Z,15.28
2023-05-19T20:29:48.880Z,15.38
2023-05-19T20:32:51.059Z,15.35
2023-05-19T20:35:52.377Z,15.30
2023-05-19T20:38:53.902Z,15.19
2023-05-19T20:41:55.443Z,15.18
2023-05-19T20:44:57.572Z,15.22
2023-05-19T20:48:00.103Z,15.15
2023-05-19T20:51:01.653Z,15.12
2023-05-19T20:54:04.617Z,15.02
2023-05-19T20:57:08.372Z,14.94
2023-05-19T21:00:10.934Z,14.93
2023-05-19T21:03:13.141Z,14.83
2023-05-19T21:06:14.530Z,14.78
2023-05-19T21:09:16.018Z,14.74
2023-05-19T21:12:17.339Z,14.68
2023-05-19T21:15:18.986Z,14.57
2023-05-19T21:18:21.633Z,14.51
2023-05-19T21:21:22.937Z,14.51
2023-05-19T21:24:24.428Z,14.42
2023-05-19T21:27:25.944Z,14.33
2023-05-19T21:30:27.611Z,14.26
2023-05-19T21:33:29.620Z,14.16
2023-05-19T21:36:31.174Z,14.06
2023-05-19T21:39:32.717Z,14.01
2023-05-19T21:42:34.371Z,13.98
2023-05-19T21:45:37.264Z,13.94
2023-05-19T21:48:39.439Z,13.87
2023-05-19T21:51:40.797Z,13.70
2023-05-19T21:54:42.510Z,13.56
2023-05-19T21:57:43.809Z,13.61
2023-05-19T22:00:48.924Z,13.46
2023-05-19T22:03:52.333Z,13.45
2023-05-19T22:06:53.816Z,13.49
2023-05-19T22:09:55.294Z,13.41
2023-05-19T22:12:57.361Z,13.42
2023-05-19T22:15:58.864Z,13.43
2023-05-19T22:19:01.009Z,13.42
2023-05-19T22:22:13.011Z,13.37
2023-05-19T22:25:15.747Z,13.28
2023-05-19T22:28:17.309Z,13.22
2023-05-19T22:31:18.668Z,13.25
2023-05-19T22:34:20.820Z,13.18
2023-05-19T22:37:23.073Z,13.10
2023-05-19T22:40:24.617Z,13.05
2023-05-19T22:43:26.163Z,13.02
2023-05-19T22:46:27.650Z,12.99
2023-05-19T22:49:29.803Z,12.89
2023-05-19T22:52:31.343Z,12.91
2023-05-19T22:55:32.812Z,12.89
2023-05-19T22:58:34.479Z,12.90
2023-05-19T23:01:35.853Z,12.77
2023-05-19T23:04:38.198Z,12.77
2023-05-19T23:07:39.827Z,12.76
2023-05-19T23:10:41.172Z,12.62
2023-05-19T23:13:42.653Z,12.67
2023-05-19T23:16:44.155Z,12.53
2023-05-19T23:19:46.358Z,12.51
2023-05-19T23:22:47.679Z,12.68
2023-05-19T23:25:49.165Z,12.55
2023-05-19T23:28:50.738Z,12.48
2023-05-19T23:31:52.117Z,12.48
2023-05-19T23:34:54.261Z,12.46
2023-05-19T23:37:55.573Z,12.52
2023-05-19T23:40:57.104Z,12.70
2023-05-19T23:43:58.640Z,12.54
2023-05-19T23:47:00.130Z,12.45
2023-05-19T23:50:02.464Z,12.40
2023-05-19T23:53:03.848Z,12.39
2023-05-19T23:56:06.125Z,12.46
2023-05-19T23:59:07.738Z,12.33
